createdAt,value
2023-02-25T00:02:04.021Z,99.91
2023-02-25T00:06:05.588Z,99.83
2023-02-25T00:10:06.473Z,99.51
2023-02-25T00:14:09.906Z,100.00
2023-02-25T00:18:10.511Z,100.00
2023-02-25T00:22:11.690Z,100.00
2023-02-25T00:26:16.502Z,100.00
2023-02-25T00:30:20.999Z,99.79
2023-02-25T00:34:21.426Z,100.00
2023-02-25T00:38:23.029Z,99.77
2023-02-25T00:42:26.647Z,99.83
2023-02-25T00:46:32.376Z,100.00
2023-02-25T00:50:33.576Z,100.00
2023-02-25T00:54:34.221Z,100.00
2023-02-25T00:58:39.852Z,100.00
2023-02-25T01:02:43.291Z,100.00
2023-02-25T01:06:44.664Z,99.34
2023-02-25T01:10:45.679Z,97.80
2023-02-25T01:14:46.281Z,97.37
2023-02-25T01:18:50.660Z,97.71
2023-02-25T01:22:51.776Z,98.13
2023-02-25T01:26:55.733Z,97.87
2023-02-25T01:30:56.343Z,97.82
2023-02-25T01:35:01.345Z,96.63
2023-02-25T01:39:05.093Z,96.25
2023-02-25T01:43:08.035Z,95.58
2023-02-25T01:47:10.420Z,95.10
2023-02-25T01:51:16.117Z,95.44
2023-02-25T01:55:17.168Z,95.83
2023-02-25T01:59:20.000Z,96.13
2023-02-25T02:03:20.602Z,96.53
2023-02-25T02:07:26.509Z,96.37
2023-02-25T02:11:26.922Z,96.33
2023-02-25T02:15:28.239Z,95.35
2023-02-25T02:19:46.858Z,94.73
2023-02-25T02:24:42.432Z,94.07
2023-02-25T02:29:23.481Z,93.89
2023-02-25T02:33:38.900Z,94.31
2023-02-25T02:37:50.313Z,93.05
2023-02-25T02:42:02.478Z,91.26
2023-02-25T02:46:11.726Z,90.00
2023-02-25T02:50:26.919Z,87.43
2023-02-25T02:54:34.516Z,86.30
2023-02-25T02:58:40.955Z,84.59
2023-02-25T03:02:45.311Z,83.39
2023-02-25T03:06:54.259Z,84.57
2023-02-25T03:10:55.756Z,84.38
2023-02-25T03:14:56.403Z,84.64
2023-02-25T03:19:05.876Z,84.10
2023-02-25T03:23:15.631Z,83.46
2023-02-25T03:27:35.111Z,83.85
2023-02-25T03:31:48.642Z,83.25
2023-02-25T03:35:52.935Z,83.57
2023-02-25T03:40:07.490Z,84.48
2023-02-25T03:44:15.814Z,85.75
2023-02-25T03:48:19.919Z,86.76
2023-02-25T03:52:28.245Z,86.50
2023-02-25T03:56:46.235Z,87.04
2023-02-25T04:00:50.662Z,86.97
2023-02-25T04:04:51.381Z,86.68
2023-02-25T04:08:53.569Z,86.26
2023-02-25T04:12:56.743Z,87.16
2023-02-25T04:16:57.187Z,87.23
2023-02-25T04:20:58.261Z,88.44
2023-02-25T04:24:58.790Z,88.66
2023-02-25T04:29:02.618Z,88.42
2023-02-25T04:33:03.059Z,89.88
2023-02-25T04:37:05.835Z,88.68
2023-02-25T04:41:06.380Z,89.38
2023-02-25T04:45:12.599Z,88.51
2023-02-25T04:49:13.841Z,88.18
2023-02-25T04:53:14.328Z,86.44
2023-02-25T04:57:15.610Z,85.48
2023-02-25T05:01:19.217Z,84.95
2023-02-25T05:05:21.327Z,85.30
2023-02-25T05:09:21.942Z,85.28
2023-02-25T05:13:23.601Z,85.76
2023-02-25T05:17:26.862Z,85.16
2023-02-25T05:21:29.767Z,85.24
2023-02-25T05:25:30.238Z,84.97
2023-02-25T05:29:30.771Z,86.06
2023-02-25T05:33:34.386Z,86.58
2023-02-25T05:37:35.582Z,87.56
2023-02-25T05:41:35.938Z,89.70
2023-02-25T05:45:36.468Z,91.88
2023-02-25T05:49:39.756Z,92.63
2023-02-25T05:53:40.893Z,92.55
2023-02-25T05:57:41.850Z,91.31
2023-02-25T06:01:42.586Z,94.17
2023-02-25T06:05:48.064Z,95.58
2023-02-25T06:09:48.962Z,95.70
2023-02-25T06:13:52.960Z,95.24
2023-02-25T06:17:53.824Z,93.88
2023-02-25T06:21:57.145Z,92.27
2023-02-25T06:25:59.739Z,91.67
2023-02-25T06:30:03.036Z,91.02
2023-02-25T06:34:06.343Z,90.47
2023-02-25T06:38:09.509Z,89.95
2023-02-25T06:42:10.022Z,89.17
2023-02-25T06:46:14.934Z,88.96
2023-02-25T06:50:16.124Z,89.10
2023-02-25T06:54:20.144Z,89.41
2023-02-25T06:58:20.716Z,89.76
2023-02-25T07:02:20.994Z,90.09
2023-02-25T07:06:22.361Z,89.23
2023-02-25T07:10:25.884Z,89.17
2023-02-25T07:14:26.912Z,88.38
2023-02-25T07:18:27.500Z,88.52
2023-02-25T07:22:28.087Z,88.44
2023-02-25T07:26:31.178Z,87.43
2023-02-25T07:30:31.874Z,87.40
2023-02-25T07:34:32.582Z,87.49
2023-02-25T07:38:33.142Z,87.37
2023-02-25T07:42:37.228Z,87.08
2023-02-25T07:46:41.195Z,86.91
2023-02-25T07:50:41.667Z,86.56
2023-02-25T07:54:42.283Z,86.58
2023-02-25T07:58:46.104Z,86.50
2023-02-25T08:02:47.881Z,85.62
2023-02-25T08:06:48.941Z,85.07
2023-02-25T08:10:49.519Z,84.19
2023-02-25T08:14:52.563Z,83.20
2023-02-25T08:18:53.152Z,82.61
2023-02-25T08:22:57.286Z,82.71
2023-02-25T08:26:57.773Z,81.93
2023-02-25T08:31:03.201Z,82.55
2023-02-25T08:35:04.528Z,80.73
2023-02-25T08:39:05.413Z,78.75
2023-02-25T08:43:05.971Z,77.61
2023-02-25T08:47:09.499Z,74.37
2023-02-25T08:51:15.002Z,75.27
2023-02-25T08:55:16.247Z,75.63
2023-02-25T08:59:18.689Z,77.25
2023-02-25T09:03:22.407Z,77.14
2023-02-25T09:07:23.729Z,74.27
2023-02-25T09:11:26.555Z,74.49
2023-02-25T09:15:27.613Z,75.76
2023-02-25T09:19:31.279Z,75.33
2023-02-25T09:23:32.135Z,72.75
2023-02-25T09:27:32.848Z,73.66
2023-02-25T09:31:37.291Z,71.95
2023-02-25T09:35:41.049Z,71.05
2023-02-25T09:39:43.234Z,71.57
2023-02-25T09:43:46.901Z,69.90
2023-02-25T09:47:55.896Z,68.99
2023-02-25T09:52:06.379Z,68.64
2023-02-25T09:56:11.263Z,69.41
2023-02-25T10:00:23.851Z,68.29
2023-02-25T10:04:35.362Z,69.16
2023-02-25T10:08:51.075Z,70.26
2023-02-25T10:13:05.208Z,68.72
2023-02-25T10:17:19.283Z,68.49
2023-02-25T10:21:35.348Z,68.39
2023-02-25T10:25:47.533Z,69.29
2023-02-25T10:29:52.893Z,68.29
2023-02-25T10:33:57.016Z,68.50
2023-02-25T10:37:57.964Z,67.95
2023-02-25T10:42:01.883Z,67.53
2023-02-25T10:46:11.529Z,66.68
2023-02-25T10:50:20.428Z,66.00
2023-02-25T10:54:20.703Z,66.30
2023-02-25T10:58:40.958Z,67.50
2023-02-25T11:02:47.055Z,66.42
2023-02-25T11:06:49.454Z,66.62
2023-02-25T11:11:07.729Z,66.77
2023-02-25T11:15:44.805Z,67.17
2023-02-25T11:19:57.740Z,68.53
2023-02-25T11:24:04.136Z,67.83
2023-02-25T11:28:09.865Z,67.48
2023-02-25T11:32:21.239Z,66.20
2023-02-25T11:36:27.030Z,66.29
2023-02-25T11:40:32.062Z,63.91
2023-02-25T11:44:45.667Z,62.34
2023-02-25T11:48:56.091Z,62.60
2023-02-25T11:53:10.056Z,60.57
2023-02-25T11:57:21.115Z,62.39
2023-02-25T12:01:37.749Z,64.96
2023-02-25T12:06:04.052Z,73.25
2023-02-25T12:10:58.781Z,79.51
2023-02-25T12:15:52.854Z,80.70
2023-02-25T12:20:34.922Z,77.92
2023-02-25T12:25:14.428Z,78.84
2023-02-25T12:29:52.088Z,79.81
2023-02-25T12:34:23.752Z,85.48
2023-02-25T12:39:12.082Z,91.38
2023-02-25T12:43:36.613Z,95.66
2023-02-25T12:48:04.661Z,93.49
2023-02-25T12:52:36.575Z,94.28
2023-02-25T12:57:17.463Z,91.95
2023-02-25T13:01:53.496Z,87.48
2023-02-25T13:12:11.632Z,81.57
2023-02-25T13:16:32.814Z,80.89
2023-02-25T13:21:40.797Z,80.03
2023-02-25T13:26:49.063Z,84.60
2023-02-25T13:31:07.237Z,88.57
2023-02-25T13:35:35.501Z,90.41
2023-02-25T13:40:08.375Z,92.17
2023-02-25T13:44:36.014Z,93.54
2023-02-25T13:49:22.850Z,94.02
2023-02-25T13:53:59.717Z,95.19
2023-02-25T13:58:28.817Z,95.83
2023-02-25T14:03:30.141Z,95.59
2023-02-25T14:07:56.132Z,94.29
2023-02-25T14:12:13.144Z,92.76
2023-02-25T14:16:34.750Z,92.59
2023-02-25T14:20:49.197Z,90.35
2023-02-25T14:25:05.478Z,84.93
2023-02-25T14:29:28.288Z,72.92
2023-02-25T14:34:18.544Z,75.47
2023-02-25T14:38:29.994Z,75.71
2023-02-25T14:43:06.250Z,79.06
2023-02-25T14:47:18.296Z,81.81
2023-02-25T14:51:50.282Z,85.19
2023-02-25T14:56:35.840Z,85.69
2023-02-25T15:01:01.832Z,86.02
2023-02-25T15:05:50.252Z,85.83
2023-02-25T15:10:20.546Z,86.07
2023-02-25T15:15:22.691Z,85.07
2023-02-25T15:19:58.478Z,83.70
2023-02-25T15:24:00.201Z,82.02
2023-02-25T15:28:02.745Z,82.73
2023-02-25T15:32:24.555Z,81.91
2023-02-25T15:36:45.090Z,83.09
2023-02-25T15:40:51.895Z,84.32
2023-02-25T15:44:53.772Z,84.97
2023-02-25T15:49:10.417Z,86.09
2023-02-25T15:53:36.028Z,86.85
2023-02-25T15:57:42.057Z,85.78
2023-02-25T16:01:46.518Z,85.75
2023-02-25T16:05:49.893Z,85.93
2023-02-25T16:10:01.559Z,86.85
2023-02-25T16:14:05.871Z,86.63
2023-02-25T16:18:23.393Z,87.31
2023-02-25T16:22:31.203Z,86.99
2023-02-25T16:26:47.891Z,87.47
2023-02-25T16:31:00.230Z,88.22
2023-02-25T16:35:12.620Z,88.67
2023-02-25T16:39:21.805Z,89.80
2023-02-25T16:43:30.194Z,90.14
2023-02-25T16:47:35.829Z,90.93
2023-02-25T16:51:41.502Z,91.39
2023-02-25T16:55:43.851Z,91.65
2023-02-25T16:59:47.508Z,93.09
2023-02-25T17:03:49.531Z,93.62
2023-02-25T17:07:59.841Z,93.77
2023-02-25T17:12:03.030Z,94.02
2023-02-25T17:16:08.804Z,94.06
2023-02-25T17:20:18.331Z,93.19
2023-02-25T17:24:24.114Z,92.97
2023-02-25T17:28:28.009Z,90.52
2023-02-25T17:32:35.271Z,91.76
2023-02-25T17:36:41.383Z,92.26
2023-02-25T17:40:42.616Z,92.03
2023-02-25T17:44:49.567Z,91.64
2023-02-25T17:48:59.631Z,90.66
2023-02-25T17:53:01.254Z,90.34
2023-02-25T17:57:05.046Z,89.33
2023-02-25T18:01:06.030Z,87.38
2023-02-25T18:05:28.754Z,86.77
2023-02-25T18:09:41.599Z,86.46
2023-02-25T18:13:42.304Z,86.63
2023-02-25T18:17:46.064Z,86.85
2023-02-25T18:21:50.215Z,87.03
2023-02-25T18:26:13.090Z,86.87
2023-02-25T18:30:25.058Z,86.14
2023-02-25T18:34:25.841Z,85.94
2023-02-25T18:38:33.312Z,86.56
2023-02-25T18:42:33.699Z,86.35
2023-02-25T18:46:34.352Z,87.21
2023-02-25T18:50:37.585Z,84.86
2023-02-25T18:54:41.791Z,83.51
2023-02-25T18:58:43.268Z,83.89
2023-02-25T19:02:53.970Z,84.14
2023-02-25T19:06:54.667Z,84.59
2023-02-25T19:10:58.469Z,84.76
2023-02-25T19:15:02.767Z,84.92
2023-02-25T19:19:03.124Z,85.57
2023-02-25T19:23:04.723Z,85.52
2023-02-25T19:27:08.146Z,85.52
2023-02-25T19:31:10.064Z,85.41
2023-02-25T19:35:12.297Z,85.33
2023-02-25T19:39:12.985Z,84.97
2023-02-25T19:43:18.623Z,85.32
2023-02-25T19:47:19.030Z,84.78
2023-02-25T19:51:19.528Z,84.51
2023-02-25T19:55:20.789Z,84.60
2023-02-25T19:59:24.622Z,84.38
2023-02-25T20:03:25.366Z,84.64
2023-02-25T20:07:26.499Z,83.93
2023-02-25T20:11:27.297Z,83.42
2023-02-25T20:15:31.055Z,82.74
2023-02-25T20:19:33.125Z,83.19
2023-02-25T20:23:34.513Z,82.55
2023-02-25T20:27:37.201Z,82.24
2023-02-25T20:31:40.485Z,82.09
2023-02-25T20:35:41.942Z,81.86
2023-02-25T20:39:56.624Z,81.96
2023-02-25T20:43:57.519Z,81.73
2023-02-25T20:48:03.578Z,80.29
2023-02-25T20:52:04.990Z,80.95
2023-02-25T20:56:06.134Z,81.80
2023-02-25T21:00:16.520Z,80.32
2023-02-25T21:04:20.130Z,79.63
2023-02-25T21:08:20.881Z,79.47
2023-02-25T21:12:21.724Z,79.17
2023-02-25T21:16:24.188Z,78.08
2023-02-25T21:20:30.189Z,79.00
2023-02-25T21:24:33.888Z,78.65
2023-02-25T21:28:35.336Z,78.79
2023-02-25T21:32:35.916Z,79.21
2023-02-25T21:36:39.662Z,78.96
2023-02-25T21:40:40.232Z,78.67
2023-02-25T21:44:40.596Z,79.62
2023-02-25T21:48:42.828Z,79.53
2023-02-25T21:52:45.870Z,79.17
2023-02-25T21:56:46.598Z,78.21
2023-02-25T22:00:47.086Z,78.33
2023-02-25T22:04:50.083Z,78.52
2023-02-25T22:08:54.592Z,79.05
2023-02-25T22:12:55.793Z,77.96
2023-02-25T22:16:56.470Z,78.00
2023-02-25T22:21:05.678Z,78.28
2023-02-25T22:25:10.116Z,78.08
2023-02-25T22:29:12.482Z,78.59
2023-02-25T22:33:13.296Z,78.32
2023-02-25T22:37:13.991Z,78.13
2023-02-25T22:41:20.872Z,79.11
2023-02-25T22:45:21.642Z,79.54
2023-02-25T22:49:22.415Z,80.39
2023-02-25T22:53:22.722Z,81.01
2023-02-25T22:57:25.991Z,81.66
2023-02-25T23:01:29.000Z,81.21
2023-02-25T23:05:29.559Z,81.94
2023-02-25T23:09:30.237Z,82.54
2023-02-25T23:13:33.517Z,83.44
2023-02-25T23:17:34.418Z,83.72
2023-02-25T23:21:39.288Z,83.92
2023-02-25T23:25:43.776Z,84.31
2023-02-25T23:29:46.873Z,84.90
2023-02-25T23:33:47.280Z,84.33
2023-02-25T23:37:48.274Z,83.20
2023-02-25T23:46:12.547Z,82.51
2023-02-25T23:50:16.083Z,81.98
2023-02-25T23:54:20.913Z,81.84
2023-02-25T23:58:21.523Z,81.60
